Terminal Aerodrome Forecast
Issued by NWS Omaha/Valley, NE

Home | Current Version | Previous Version | Graphics & Text | Print | Product List | Glossary On
Versions: 1 2 3 4 5 6 7 8 9 10 11 12 13 14 15 16 17 18 19 20 21 22 23 24 25 26 27 28 29 30 31 32 33
000
FTUS43 KOAX 191105 AAB
TAFOFK
TAF AMD
KOFK 191105Z 1911/2006 01008KT P6SM BKN020
      TEMPO 1911/1915 OVC015
     FM191500 03009KT P6SM SCT025 BKN100
     FM192000 05007KT P6SM OVC080
     FM200000 04007KT P6SM OVC050 PROB30 2000/2006 4SM -RA OVC025=

USA.gov is the U.S. government's official web portal to all federal, state and local government web resources and services.